Time;durP1;ratioP1;P1;durP2;ratioP2;P2;SDS_P1;SDS_P2;PMS_P1;PMS_P2;Temp;Humidity;BMP_temperature;BMP_pressure;BME280_temperature;BME280_humidity;BME280_pressure;Samples;Min_cycle;Max_cycle;Signal;HPM_P1;HPM_P2
2022/01/14 00:06:31;;;;;;;20.43;12.97;;;4.20;99.90;;;;;;6066145;23;20445;-84
2022/01/14 00:09:37;;;;;;;23.77;16.97;;;4.00;99.90;;;;;;6067786;23;20428;-85
2022/01/14 00:12:57;;;;;;;24.70;13.90;;;4.20;99.90;;;;;;6046006;23;20442;-86
2022/01/14 00:16:30;;;;;;;26.20;15.00;;;4.20;99.90;;;;;;6067888;23;20424;-87
2022/01/14 00:22:43;;;;;;;27.67;13.50;;;4.10;99.90;;;;;;6051949;23;20508;-83
2022/01/14 00:33:49;;;;;;;24.43;13.67;;;3.90;99.90;;;;;;5956695;24;20434;-85
2022/01/14 00:37:03;;;;;;;26.43;14.93;;;4.10;99.90;;;;;;5985727;23;20577;-85
2022/01/14 00:40:00;;;;;;;19.10;11.00;;;3.90;99.90;;;;;;6039963;23;20448;-84
2022/01/14 00:42:42;;;;;;;19.97;12.90;;;4.10;99.90;;;;;;6132003;23;20447;-85
2022/01/14 00:45:23;;;;;;;18.93;12.97;;;4.00;99.90;;;;;;6131319;23;20413;-84
2022/01/14 00:48:38;;;;;;;25.47;15.47;;;4.00;99.90;;;;;;6103920;23;20414;-84
2022/01/14 00:51:59;;;;;;;;;;;;;;;;;;;;;
2022/01/14 00:54:43;;;;;;;24.03;12.60;;;3.70;99.90;;;;;;6032453;23;20404;-84
2022/01/14 01:00:59;;;;;;;25.07;13.83;;;3.70;99.90;;;;;;6029343;23;21070;-83
2022/01/14 01:03:55;;;;;;;25.33;15.40;;;3.50;99.90;;;;;;6010428;23;20459;-83
2022/01/14 01:10:11;;;;;;;24.20;13.50;;;3.60;99.90;;;;;;5923630;24;20409;-84
2022/01/14 01:13:25;;;;;;;23.93;12.63;;;3.60;99.90;;;;;;5950772;24;20531;-85
2022/01/14 01:17:16;;;;;;;26.43;14.27;;;3.70;99.90;;;;;;5932381;24;20433;-82
2022/01/14 01:20:15;;;;;;;19.40;12.77;;;3.60;99.90;;;;;;5928559;24;20476;-84
2022/01/14 01:23:24;;;;;;;20.90;12.90;;;3.60;99.90;;;;;;5929970;24;20501;-84
2022/01/14 01:26:31;;;;;;;24.77;13.87;;;3.60;99.90;;;;;;5936337;24;20405;-86
2022/01/14 01:33:50;;;;;;;;;;;;;;;;;;;;;
2022/01/14 01:37:20;;;;;;;26.60;15.30;;;3.50;99.90;;;;;;5885487;24;20479;-84
2022/01/14 01:40:25;;;;;;;22.73;13.33;;;3.50;99.90;;;;;;5800269;24;20465;-84
2022/01/14 01:44:10;;;;;;;20.93;13.30;;;3.30;99.90;;;;;;5813187;24;20488;-83
2022/01/14 01:47:11;;;;;;;22.10;13.47;;;3.50;99.90;;;;;;5817854;24;20406;-85
2022/01/14 01:51:04;;;;;;;23.37;13.77;;;3.50;99.90;;;;;;5837119;24;20448;-83
2022/01/14 02:04:10;;;;;;;23.07;13.23;;;3.60;99.90;;;;;;5781247;24;20404;-84
2022/01/14 02:07:35;;;;;;;;;;;;;;;;;;;;;
2022/01/14 02:10:44;;;;;;;;;;;;;;;;;;;;;
2022/01/14 02:14:01;;;;;;;21.13;12.53;;;3.50;99.90;;;;;;5960087;23;20433;-87
2022/01/14 02:28:09;;;;;;;;;;;;;;;;;;;;;
2022/01/14 02:33:43;;;;;;;17.67;12.47;;;3.60;99.90;;;;;;6131030;23;20522;-85
2022/01/14 02:37:08;;;;;;;20.47;12.07;;;3.50;99.90;;;;;;6110572;23;20435;-85
2022/01/14 02:40:06;;;;;;;15.87;11.73;;;3.50;99.90;;;;;;6091944;23;20524;-84
2022/01/14 02:47:07;;;;;;;18.70;11.60;;;3.50;99.90;;;;;;5961176;24;20410;-83
2022/01/14 02:56:34;;;;;;;20.20;11.23;;;3.40;99.90;;;;;;6166237;23;20477;-84
2022/01/14 02:59:53;;;;;;;18.77;12.53;;;3.40;99.90;;;;;;6063946;23;20439;-86
2022/01/14 03:14:32;;;;;;;21.10;12.90;;;3.60;99.90;;;;;;5998733;23;20425;-84
2022/01/14 03:17:53;;;;;;;20.63;12.57;;;3.60;99.90;;;;;;5972407;23;20474;-86
2022/01/14 03:28:20;;;;;;;;;;;;;;;;;;;;;
2022/01/14 03:31:42;;;;;;;19.90;12.67;;;3.50;99.90;;;;;;5997948;23;20496;-85
2022/01/14 03:38:48;;;;;;;16.27;11.17;;;3.40;99.90;;;;;;6042894;23;20426;-85
2022/01/14 03:45:32;;;;;;;16.33;11.37;;;3.30;99.90;;;;;;6112248;23;20465;-84
2022/01/14 03:48:15;;;;;;;16.50;11.30;;;3.20;99.90;;;;;;6111348;23;20412;-87
2022/01/14 03:51:29;;;;;;;22.50;11.70;;;3.20;99.90;;;;;;6108327;23;20441;-86
2022/01/14 03:54:57;;;;;;;18.57;12.20;;;3.50;99.90;;;;;;6109141;23;20448;-87
2022/01/14 04:01:58;;;;;;;17.03;12.13;;;3.60;99.90;;;;;;6065350;23;20437;-86
2022/01/14 04:05:45;;;;;;;15.03;10.13;;;3.60;99.90;;;;;;5944156;24;20431;-85
2022/01/14 04:12:32;;;;;;;20.90;12.10;;;3.70;99.90;;;;;;5910696;24;20438;-87
2022/01/14 04:18:24;;;;;;;16.00;10.40;;;3.60;99.90;;;;;;5884742;24;20398;-86
2022/01/14 04:24:27;;;;;;;21.20;9.90;;;3.70;99.90;;;;;;6134580;23;20462;-84
2022/01/14 04:27:38;;;;;;;18.20;10.93;;;3.80;99.90;;;;;;5939898;23;20413;-85
2022/01/14 04:31:11;;;;;;;14.97;9.30;;;3.60;99.90;;;;;;6002380;23;20400;-86
2022/01/14 04:34:31;;;;;;;16.10;11.00;;;3.60;99.90;;;;;;6032539;23;20442;-85
2022/01/14 04:41:53;;;;;;;21.23;10.57;;;3.50;99.90;;;;;;5963263;24;21002;-85
2022/01/14 04:46:01;;;;;;;16.87;10.23;;;3.20;99.90;;;;;;5886442;24;20419;-86
2022/01/14 04:49:38;;;;;;;15.80;10.40;;;3.50;99.90;;;;;;5965178;24;20426;-84
2022/01/14 04:56:24;;;;;;;14.90;9.50;;;3.10;99.90;;;;;;5955314;24;20461;-85
2022/01/14 05:25:22;;;;;;;16.27;10.70;;;3.10;99.90;;;;;;6141615;23;20422;-85
2022/01/14 05:37:37;;;;;;;22.10;10.77;;;3.10;99.90;;;;;;6138425;23;20451;-85
2022/01/14 05:43:29;;;;;;;16.33;10.50;;;3.00;99.90;;;;;;6130815;23;20466;-85
2022/01/14 05:51:02;;;;;;;;;;;;;;;;;;;;;
2022/01/14 05:54:18;;;;;;;14.07;9.20;;;2.80;99.90;;;;;;6070437;23;20723;-86
2022/01/14 05:57:47;;;;;;;;;;;;;;;;;;;;;
2022/01/14 06:02:21;;;;;;;13.17;9.73;;;2.60;99.90;;;;;;6127496;23;20455;-83
2022/01/14 06:05:53;;;;;;;18.87;9.93;;;2.40;99.90;;;;;;6137860;23;20391;-87
2022/01/14 06:09:05;;;;;;;14.30;7.93;;;2.60;99.90;;;;;;6116942;23;20391;-86
2022/01/14 06:23:55;;;;;;;15.57;9.97;;;2.80;99.90;;;;;;6128746;23;20493;-85
2022/01/14 06:28:03;;;;;;;12.87;8.73;;;2.70;99.90;;;;;;6079838;23;20451;-85
2022/01/14 06:31:17;;;;;;;18.23;9.87;;;2.70;99.90;;;;;;5893297;24;20472;-86
2022/01/14 06:35:04;;;;;;;15.10;9.67;;;2.60;99.90;;;;;;5963218;24;20523;-85
2022/01/14 06:38:10;;;;;;;16.57;9.77;;;2.60;99.90;;;;;;5893630;24;20487;-86
2022/01/14 06:41:20;;;;;;;14.53;9.57;;;2.60;99.90;;;;;;5994301;23;20500;-85
2022/01/14 06:44:40;;;;;;;13.03;8.83;;;2.50;99.90;;;;;;5920630;24;21003;-84
2022/01/14 06:51:59;;;;;;;14.73;9.30;;;2.60;99.90;;;;;;5872798;24;20473;-84
2022/01/14 06:59:17;;;;;;;;;;;;;;;;;;;;;
2022/01/14 07:13:17;;;;;;;12.57;8.35;;;2.90;99.90;;;;;;5619046;22;14609825;-85
2022/01/14 07:19:46;;;;;;;13.90;9.90;;;2.80;99.90;;;;;;6156966;23;20481;-86
2022/01/14 07:23:18;;;;;;;16.27;9.93;;;2.80;99.90;;;;;;6179937;23;20480;-87
2022/01/14 07:35:55;;;;;;;14.33;9.57;;;2.60;99.90;;;;;;6154257;23;20461;-86
2022/01/14 07:46:31;;;;;;;16.53;9.67;;;2.70;99.90;;;;;;5920968;24;20405;-84
2022/01/14 07:53:06;;;;;;;15.77;10.57;;;2.90;99.90;;;;;;5764452;24;20421;-85
2022/01/14 07:56:21;;;;;;;17.40;11.90;;;3.00;99.90;;;;;;5703065;25;20425;-85
2022/01/14 08:12:54;;;;;;;16.60;10.93;;;2.80;99.90;;;;;;6204180;23;20410;-86
2022/01/14 08:16:36;;;;;;;18.60;11.17;;;2.90;99.90;;;;;;6199085;23;20412;-87
2022/01/14 08:20:14;;;;;;;15.67;10.57;;;3.00;99.90;;;;;;6115712;23;20562;-85
2022/01/14 08:26:35;;;;;;;13.43;9.90;;;3.10;99.90;;;;;;6122018;23;20440;-86
2022/01/14 08:30:03;;;;;;;15.50;10.33;;;2.80;99.90;;;;;;6084196;23;20434;-86
2022/01/14 08:33:19;;;;;;;12.83;9.10;;;2.70;99.90;;;;;;6005612;23;20454;-85
2022/01/14 08:36:49;;;;;;;13.30;10.00;;;3.00;99.90;;;;;;6052273;23;20382;-84
2022/01/14 08:40:02;;;;;;;14.70;9.73;;;3.10;99.90;;;;;;6113111;23;20406;-87
2022/01/14 08:50:10;;;;;;;16.20;11.10;;;3.10;99.90;;;;;;6069081;23;20410;-86
2022/01/14 08:53:16;;;;;;;14.63;10.43;;;3.30;99.90;;;;;;6078883;23;20407;-86
2022/01/14 08:56:08;;;;;;;14.77;9.57;;;3.30;99.90;;;;;;6095218;23;20437;-84
2022/01/14 08:59:25;;;;;;;16.47;10.03;;;3.40;99.90;;;;;;6025938;23;20449;-82
2022/01/14 09:03:07;;;;;;;;;;;;;;;;;;;;;
2022/01/14 09:13:07;;;;;;;15.27;10.07;;;3.50;99.90;;;;;;6016896;23;20530;-83
2022/01/14 09:16:39;;;;;;;16.83;9.90;;;3.60;99.90;;;;;;6014750;23;20732;-82
2022/01/14 09:23:15;;;;;;;13.13;9.10;;;3.50;99.90;;;;;;5932933;24;20464;-83
2022/01/14 09:26:45;;;;;;;15.60;10.47;;;3.40;99.90;;;;;;5932639;24;20442;-85
2022/01/14 09:30:15;;;;;;;17.33;11.13;;;3.70;99.90;;;;;;5931839;24;20813;-85
2022/01/14 09:33:38;;;;;;;15.77;10.00;;;3.70;99.90;;;;;;5934791;24;20602;-84
2022/01/14 09:40:07;;;;;;;;;;;;;;;;;;;;;
2022/01/14 09:43:01;;;;;;;15.00;10.13;;;3.60;99.90;;;;;;6014554;23;20436;-84
2022/01/14 09:46:52;;;;;;;21.70;12.50;;;3.70;99.90;;;;;;6024961;23;20422;-83
2022/01/14 09:50:00;;;;;;;17.83;11.40;;;4.70;99.90;;;;;;5935867;24;20414;-85
2022/01/14 09:53:30;;;;;;;16.57;10.80;;;6.40;99.90;;;;;;5830197;24;20437;-87
2022/01/14 09:56:50;;;;;;;11.83;9.50;;;8.10;99.30;;;;;;5805383;24;20469;-85
2022/01/14 10:00:07;;;;;;;13.83;9.43;;;9.80;95.70;;;;;;5836648;24;20417;-87
2022/01/14 10:07:41;;;;;;;20.10;14.03;;;9.70;92.40;;;;;;5940432;23;20418;-86
2022/01/14 10:11:35;;;;;;;;;;;;;;;;;;;;;
2022/01/14 10:14:49;;;;;;;14.50;10.37;;;9.10;94.30;;;;;;5940287;24;20396;-87
2022/01/14 10:18:42;;;;;;;15.50;11.20;;;8.30;94.10;;;;;;5969067;24;20417;-86
2022/01/14 10:25:41;;;;;;;13.83;10.77;;;6.30;98.40;;;;;;6079721;23;20435;-84
2022/01/14 10:29:05;;;;;;;14.40;10.73;;;6.00;99.80;;;;;;6018629;23;20403;-88
2022/01/14 10:32:31;;;;;;;12.97;10.47;;;6.00;99.90;;;;;;6016648;23;20492;-86
2022/01/14 10:36:00;;;;;;;;;;;;;;;;;;;;;
2022/01/14 10:40:00;;;;;;;14.83;11.10;;;6.00;99.90;;;;;;6005479;23;20798;-84
2022/01/14 10:43:21;;;;;;;17.23;12.40;;;6.00;99.90;;;;;;6154338;23;20524;-89
2022/01/14 10:46:28;;;;;;;18.83;12.03;;;6.00;99.90;;;;;;6160918;23;20492;-86
2022/01/14 10:57:13;;;;;;;18.80;12.47;;;6.20;99.90;;;;;;6111166;23;20402;-86
2022/01/14 11:00:39;;;;;;;21.07;13.13;;;6.30;99.90;;;;;;6084752;23;20477;-84
2022/01/14 11:03:56;;;;;;;15.40;11.80;;;6.30;99.90;;;;;;6075032;23;20406;-86
2022/01/14 11:07:13;;;;;;;;;;;;;;;;;;;;;
2022/01/14 11:10:06;;;;;;;21.60;14.47;;;6.00;99.90;;;;;;6111529;23;20416;-84
2022/01/14 11:16:49;;;;;;;23.03;13.87;;;6.60;99.90;;;;;;5967454;24;20405;-86
2022/01/14 11:19:33;;;;;;;22.93;17.03;;;6.90;99.90;;;;;;5964106;24;20436;-84
2022/01/14 11:26:16;;;;;;;;;;;;;;;;;;;;;
2022/01/14 11:29:58;;;;;;;24.77;18.27;;;7.40;99.90;;;;;;6011882;23;20486;-86
2022/01/14 11:33:38;;;;;;;25.90;17.53;;;7.00;99.90;;;;;;5854721;24;20477;-84
2022/01/14 11:36:21;;;;;;;27.27;19.60;;;6.90;99.90;;;;;;5968736;24;20444;-85
2022/01/14 11:39:53;;;;;;;22.70;16.87;;;6.90;99.90;;;;;;5973657;24;20414;-86
2022/01/14 11:43:23;;;;;;;26.63;19.13;;;6.60;99.90;;;;;;5965101;24;20423;-88
2022/01/14 11:46:37;;;;;;;31.63;20.13;;;6.90;99.90;;;;;;5961754;24;20519;-86
2022/01/14 11:49:44;;;;;;;33.00;21.37;;;6.70;99.90;;;;;;5963670;24;20436;-85
2022/01/14 11:52:43;;;;;;;40.80;24.37;;;6.80;99.90;;;;;;5965188;24;20464;-84
2022/01/14 11:55:29;;;;;;;37.90;23.23;;;6.40;99.90;;;;;;5961477;24;20431;-85
2022/01/14 11:58:54;;;;;;;45.30;26.07;;;6.50;99.90;;;;;;6010704;23;20484;-86
2022/01/14 12:02:16;;;;;;;39.00;22.87;;;6.40;99.90;;;;;;5996167;23;20443;-85
2022/01/14 12:05:53;;;;;;;41.93;22.30;;;6.30;99.90;;;;;;5959448;24;20454;-85
2022/01/14 12:08:45;;;;;;;43.47;22.70;;;6.60;99.90;;;;;;5939985;24;20408;-81
2022/01/14 12:11:47;;;;;;;40.60;22.63;;;6.70;99.90;;;;;;5957428;24;20506;-83
2022/01/14 12:14:56;;;;;;;38.93;22.57;;;6.30;99.90;;;;;;5948535;24;20418;-86
2022/01/14 12:18:27;;;;;;;46.07;23.07;;;6.40;99.90;;;;;;5963019;24;20392;-85
2022/01/14 12:22:04;;;;;;;42.50;24.07;;;6.70;99.90;;;;;;5895968;24;20484;-85
2022/01/14 12:25:10;;;;;;;42.10;26.33;;;6.80;99.90;;;;;;5939386;24;20520;-85
2022/01/14 12:28:29;;;;;;;42.47;24.60;;;6.70;99.90;;;;;;5945706;24;20498;-86
2022/01/14 12:31:20;;;;;;;43.47;22.80;;;6.40;99.90;;;;;;5961101;24;20757;-86
2022/01/14 12:34:59;;;;;;;;;;;;;;;;;;;;;
2022/01/14 12:38:06;;;;;;;42.00;23.17;;;6.50;99.90;;;;;;6049332;23;20397;-85
2022/01/14 12:48:48;;;;;;;46.30;24.77;;;6.50;99.90;;;;;;6102808;23;20392;-86
2022/01/14 12:51:27;;;;;;;50.10;27.53;;;6.50;99.90;;;;;;6148536;23;20566;-87
2022/01/14 12:57:50;;;;;;;57.43;27.00;;;6.40;99.90;;;;;;6196085;23;20406;-86
2022/01/14 13:01:18;;;;;;;65.37;30.10;;;6.60;99.90;;;;;;5175434;27;20515;-83
2022/01/14 13:04:35;;;;;;;56.50;29.17;;;6.50;99.90;;;;;;5129335;27;20500;-86
2022/01/14 13:07:45;;;;;;;52.53;29.17;;;6.40;99.90;;;;;;5082515;28;20453;-85
2022/01/14 13:10:35;;;;;;;58.50;26.93;;;6.30;99.90;;;;;;5062744;28;20814;-85
2022/01/14 13:13:04;;;;;;;67.73;30.73;;;6.30;99.90;;;;;;5086137;28;20484;-84
2022/01/14 13:15:39;;;;;;;57.40;31.23;;;6.10;99.90;;;;;;5078683;28;20429;-83
2022/01/14 13:18:14;;;;;;;57.77;27.93;;;6.00;99.90;;;;;;5078169;28;20638;-84
2022/01/14 13:20:43;;;;;;;44.70;24.17;;;5.90;99.90;;;;;;5086416;28;20575;-83
2022/01/14 13:23:19;;;;;;;46.73;24.70;;;6.00;99.90;;;;;;5090986;28;20488;-85
2022/01/14 13:25:49;;;;;;;46.27;24.13;;;6.00;99.90;;;;;;5090565;28;20427;-86
2022/01/14 13:28:15;;;;;;;47.70;26.43;;;6.00;99.90;;;;;;5110781;28;20485;-84
2022/01/14 13:30:44;;;;;;;41.97;21.67;;;5.90;99.90;;;;;;5096988;28;20442;-85
2022/01/14 13:33:17;;;;;;;46.27;21.63;;;5.90;99.90;;;;;;5062717;28;20455;-85
2022/01/14 13:35:47;;;;;;;39.20;22.03;;;5.90;99.90;;;;;;5079391;28;20451;-84
2022/01/14 13:38:18;;;;;;;46.00;25.57;;;6.00;99.90;;;;;;5121295;27;20563;-85
2022/01/14 13:40:53;;;;;;;45.90;24.23;;;6.30;99.90;;;;;;5158375;27;20471;-82
2022/01/14 13:43:28;;;;;;;45.63;24.50;;;6.50;99.90;;;;;;5158973;27;20511;-84
2022/01/14 13:46:06;;;;;;;45.53;22.70;;;6.60;99.90;;;;;;5159014;27;20451;-84
2022/01/14 13:48:53;;;;;;;42.50;24.23;;;6.60;99.90;;;;;;5160198;27;20479;-84
2022/01/14 13:51:22;;;;;;;47.80;26.00;;;6.60;99.90;;;;;;5142601;27;20540;-85
2022/01/14 13:53:55;;;;;;;41.43;21.53;;;6.50;99.90;;;;;;5140127;27;20474;-83
2022/01/14 13:56:24;;;;;;;45.70;24.77;;;6.60;99.90;;;;;;5139095;27;20472;-83
2022/01/14 13:58:54;;;;;;;44.33;23.40;;;6.50;99.90;;;;;;5141035;27;20488;-83
2022/01/14 14:01:22;;;;;;;44.83;23.10;;;6.40;99.90;;;;;;5166349;27;20465;-84
2022/01/14 14:04:05;;;;;;;41.60;19.90;;;6.20;99.90;;;;;;5166190;27;20515;-85
2022/01/14 14:06:42;;;;;;;37.10;20.70;;;6.30;99.90;;;;;;5146793;27;20512;-85
2022/01/14 14:09:21;;;;;;;42.40;21.20;;;6.40;99.90;;;;;;5163761;27;20451;-85
2022/01/14 14:17:03;;;;;;;39.50;22.20;;;6.10;99.90;;;;;;5147208;27;20516;-84
2022/01/14 14:19:54;;;;;;;34.23;21.27;;;6.40;99.90;;;;;;5135252;27;21045;-84
2022/01/14 14:22:34;;;;;;;42.40;21.93;;;6.60;99.90;;;;;;5137151;27;20559;-82
2022/01/14 14:25:10;;;;;;;90.07;69.60;;;6.20;99.90;;;;;;5139295;27;20424;-80
2022/01/14 14:28:01;;;;;;;40.10;23.20;;;6.10;99.90;;;;;;5143713;27;20426;-82
2022/01/14 14:30:46;;;;;;;46.67;23.43;;;6.40;99.90;;;;;;5143693;27;20446;-83
2022/01/14 14:33:13;;;;;;;47.87;24.00;;;6.70;99.90;;;;;;5145265;27;20432;-82
2022/01/14 14:35:43;;;;;;;51.20;25.10;;;6.70;99.90;;;;;;5157431;27;20424;-83
2022/01/14 14:38:17;;;;;;;53.03;24.83;;;6.70;99.90;;;;;;5141835;27;20481;-84
2022/01/14 14:40:50;;;;;;;49.13;24.40;;;6.70;99.90;;;;;;5121067;28;20544;-85
2022/01/14 14:43:19;;;;;;;47.57;26.67;;;6.40;99.90;;;;;;5120728;28;20483;-85
2022/01/14 14:45:47;;;;;;;51.30;28.50;;;6.70;99.90;;;;;;5139622;27;20509;-83
2022/01/14 14:48:14;;;;;;;54.70;27.17;;;6.60;99.90;;;;;;5105782;28;20456;-83
2022/01/14 14:50:40;;;;;;;47.90;26.30;;;6.80;99.90;;;;;;5105399;28;20455;-82
2022/01/14 14:53:07;;;;;;;53.73;25.00;;;6.90;99.90;;;;;;5122416;28;20532;-83
2022/01/14 14:55:35;;;;;;;55.63;23.93;;;6.90;99.90;;;;;;5122427;28;20460;-82
2022/01/14 14:58:03;;;;;;;41.83;22.07;;;6.90;99.90;;;;;;5124769;27;20436;-85
2022/01/14 15:00:36;;;;;;;54.97;27.30;;;6.70;99.90;;;;;;5146510;27;20475;-84
2022/01/14 15:03:06;;;;;;;48.03;26.50;;;6.70;99.90;;;;;;5128841;27;20443;-83
2022/01/14 15:05:36;;;;;;;49.67;26.33;;;6.60;99.90;;;;;;5123946;27;20449;-84
2022/01/14 15:08:03;;;;;;;51.53;26.60;;;6.80;99.90;;;;;;5122791;27;20449;-84
2022/01/14 15:10:30;;;;;;;49.07;23.83;;;6.80;99.90;;;;;;5120384;28;20482;-84
2022/01/14 15:12:57;;;;;;;46.07;24.50;;;6.80;99.90;;;;;;5122052;28;20443;-84
2022/01/14 15:20:35;;;;;;;49.07;25.17;;;6.60;99.90;;;;;;5140541;27;20476;-84
2022/01/14 15:23:04;;;;;;;45.40;24.13;;;6.60;99.90;;;;;;5120311;28;20528;-82
2022/01/14 15:25:31;;;;;;;43.30;24.37;;;6.60;99.90;;;;;;5125430;27;20517;-84
2022/01/14 15:27:58;;;;;;;46.33;23.47;;;6.60;99.90;;;;;;5142671;27;20431;-86
2022/01/14 15:30:31;;;;;;;42.00;23.13;;;6.30;99.90;;;;;;5141725;27;20484;-84
2022/01/14 15:32:58;;;;;;;48.70;26.10;;;6.40;99.90;;;;;;5142620;27;20444;-83
2022/01/14 15:35:25;;;;;;;48.13;23.90;;;6.60;99.90;;;;;;5121447;28;20545;-84
2022/01/14 15:37:53;;;;;;;53.27;26.37;;;6.70;99.90;;;;;;5113043;28;20453;-83
2022/01/14 15:40:41;;;;;;;47.30;25.00;;;6.70;99.90;;;;;;5107389;28;20575;-83
2022/01/14 15:43:08;;;;;;;42.13;24.73;;;6.60;99.90;;;;;;5121520;28;20449;-84
2022/01/14 15:45:36;;;;;;;50.40;25.50;;;6.50;99.90;;;;;;5121494;28;20455;-85
2022/01/14 15:48:04;;;;;;;48.27;25.93;;;6.40;99.90;;;;;;5121046;27;20462;-84
2022/01/14 15:50:35;;;;;;;51.83;25.67;;;6.60;99.90;;;;;;5120950;28;20457;-83
2022/01/14 15:53:01;;;;;;;49.43;25.27;;;6.70;99.90;;;;;;5118982;28;20427;-84
2022/01/14 15:55:28;;;;;;;51.07;26.00;;;6.80;99.90;;;;;;5120108;27;21026;-84
2022/01/14 15:57:55;;;;;;;46.57;25.97;;;6.60;99.90;;;;;;5117788;27;20463;-85
2022/01/14 16:00:22;;;;;;;40.60;23.50;;;6.40;99.90;;;;;;5120007;28;21017;-83
2022/01/14 16:02:49;;;;;;;40.00;21.87;;;6.50;99.90;;;;;;5119610;28;20460;-84
2022/01/14 16:05:15;;;;;;;49.60;24.67;;;6.40;99.90;;;;;;5120429;28;20452;-84
2022/01/14 16:07:42;;;;;;;52.53;27.30;;;6.30;99.90;;;;;;5120121;28;20505;-83
2022/01/14 16:10:10;;;;;;;48.37;24.50;;;6.10;99.90;;;;;;5101020;28;20446;-84
2022/01/14 16:12:39;;;;;;;49.27;23.80;;;6.00;99.90;;;;;;5100307;28;20470;-85
2022/01/14 16:15:09;;;;;;;42.07;23.40;;;6.30;99.90;;;;;;5102627;28;20457;-86
2022/01/14 16:17:37;;;;;;;44.23;24.57;;;6.60;99.90;;;;;;5115990;27;20547;-85
2022/01/14 16:20:04;;;;;;;51.57;25.57;;;6.70;99.90;;;;;;5126771;27;21023;-83
2022/01/14 16:22:31;;;;;;;45.30;24.37;;;6.90;99.90;;;;;;5115205;27;20486;-84
2022/01/14 16:24:58;;;;;;;47.17;23.17;;;6.80;99.90;;;;;;5113328;27;20564;-84
2022/01/14 16:27:25;;;;;;;48.57;24.23;;;6.70;99.90;;;;;;5132098;27;20442;-82
2022/01/14 16:29:53;;;;;;;48.20;26.10;;;6.60;99.90;;;;;;5119028;27;20435;-84
2022/01/14 16:32:22;;;;;;;44.30;23.93;;;6.60;99.90;;;;;;5138824;27;20467;-84
2022/01/14 16:34:50;;;;;;;40.33;23.10;;;6.50;99.90;;;;;;5117331;27;20470;-85
2022/01/14 16:37:20;;;;;;;45.37;23.70;;;6.50;99.90;;;;;;5113907;27;20446;-83
2022/01/14 16:39:49;;;;;;;50.83;25.50;;;6.60;99.90;;;;;;5133920;27;20472;-83
2022/01/14 16:42:20;;;;;;;45.17;25.53;;;6.70;99.90;;;;;;5130865;27;20460;-84
2022/01/14 16:44:48;;;;;;;39.57;23.60;;;6.60;99.90;;;;;;5124039;27;20469;-83
2022/01/14 16:47:19;;;;;;;49.10;23.10;;;6.40;99.90;;;;;;5142644;27;20528;-84
2022/01/14 16:49:48;;;;;;;44.80;26.30;;;6.70;99.90;;;;;;5122165;28;20469;-82
2022/01/14 16:52:16;;;;;;;46.10;26.03;;;6.50;99.90;;;;;;5141231;27;20472;-83
2022/01/14 16:54:50;;;;;;;49.60;25.90;;;6.70;99.90;;;;;;5102013;22;20510;-83
2022/01/14 16:57:19;;;;;;;45.73;23.73;;;6.50;99.90;;;;;;5080234;28;20451;-83
2022/01/14 16:59:49;;;;;;;44.30;24.53;;;6.50;99.90;;;;;;5064103;28;20480;-86
2022/01/14 17:02:16;;;;;;;42.10;24.03;;;6.40;99.90;;;;;;5081917;28;20478;-84
2022/01/14 17:04:44;;;;;;;51.10;27.63;;;6.50;99.90;;;;;;5101810;28;20462;-83
2022/01/14 17:07:11;;;;;;;51.17;25.90;;;6.40;99.90;;;;;;5094489;28;20459;-85
2022/01/14 17:09:39;;;;;;;50.33;25.30;;;6.30;99.90;;;;;;5095453;28;20455;-85
2022/01/14 17:12:09;;;;;;;44.47;25.57;;;6.20;99.90;;;;;;5096932;28;20444;-85
2022/01/14 17:14:36;;;;;;;49.43;26.13;;;6.30;99.90;;;;;;5095882;28;20471;-88
2022/01/14 17:17:04;;;;;;;42.70;25.03;;;6.70;99.90;;;;;;5093456;28;20455;-85
2022/01/14 17:19:30;;;;;;;49.00;25.87;;;6.90;99.90;;;;;;5105385;28;20449;-83
2022/01/14 17:21:58;;;;;;;49.10;25.93;;;6.90;99.90;;;;;;5101893;28;20477;-85
2022/01/14 17:24:25;;;;;;;53.73;26.90;;;6.70;99.90;;;;;;5090057;28;20489;-86
2022/01/14 17:26:52;;;;;;;47.73;24.00;;;6.90;99.90;;;;;;5096430;28;20971;-86
2022/01/14 17:29:18;;;;;;;34.77;20.93;;;6.60;99.90;;;;;;5107829;28;20425;-86
2022/01/14 17:31:47;;;;;;;31.10;17.37;;;6.90;99.90;;;;;;5114997;28;20525;-86
2022/01/14 17:34:13;;;;;;;30.03;18.47;;;6.70;99.90;;;;;;5110094;28;20504;-86
2022/01/14 17:36:40;;;;;;;30.50;18.90;;;6.50;99.90;;;;;;5109946;28;20465;-86
2022/01/14 17:39:07;;;;;;;27.50;18.30;;;6.50;99.90;;;;;;5093279;28;20452;-88
2022/01/14 17:41:34;;;;;;;35.67;20.13;;;6.60;99.90;;;;;;5093007;28;20479;-87
2022/01/14 17:44:06;;;;;;;31.13;19.53;;;6.50;99.90;;;;;;5090822;28;20470;-86
2022/01/14 17:46:33;;;;;;;35.10;20.47;;;6.40;99.90;;;;;;5087011;28;20480;-87
2022/01/14 17:49:07;;;;;;;34.07;19.10;;;6.40;99.90;;;;;;5107354;28;20499;-87
2022/01/14 17:51:37;;;;;;;26.47;17.10;;;6.70;99.90;;;;;;5109219;28;20448;-85
2022/01/14 17:54:04;;;;;;;31.30;18.60;;;7.10;99.90;;;;;;5106907;28;20577;-86
2022/01/14 17:56:30;;;;;;;30.83;18.43;;;7.20;99.90;;;;;;5105218;28;20454;-86
2022/01/14 17:58:58;;;;;;;26.60;16.87;;;7.10;99.90;;;;;;5083513;28;20454;-85
2022/01/14 18:01:25;;;;;;;29.17;18.93;;;6.90;99.90;;;;;;5085533;28;20490;-84
2022/01/14 18:03:52;;;;;;;29.83;17.60;;;6.80;99.90;;;;;;5084187;28;21229;-84
2022/01/14 18:06:20;;;;;;;28.93;18.53;;;6.80;99.90;;;;;;5085527;28;20460;-86
2022/01/14 18:08:47;;;;;;;21.20;14.73;;;6.90;99.90;;;;;;5089004;28;20458;-85
2022/01/14 18:11:20;;;;;;;26.00;14.97;;;6.60;99.90;;;;;;5093021;28;20462;-84
2022/01/14 18:14:00;;;;;;;22.93;14.43;;;6.50;99.90;;;;;;5089847;28;20469;-84
2022/01/14 18:16:28;;;;;;;23.03;15.17;;;6.30;99.90;;;;;;5087871;28;20956;-85
2022/01/14 18:19:42;;;;;;;20.40;13.67;;;6.20;99.90;;;;;;5045818;28;20502;-86
2022/01/14 18:22:23;;;;;;;20.67;14.50;;;6.30;99.90;;;;;;5033359;28;20455;-86
2022/01/14 18:25:05;;;;;;;23.73;14.70;;;6.20;99.90;;;;;;5030247;28;20502;-84
2022/01/14 18:27:32;;;;;;;24.17;15.57;;;6.20;99.90;;;;;;5042856;28;20460;-85
2022/01/14 18:29:59;;;;;;;26.40;16.07;;;6.20;99.90;;;;;;5057125;28;20455;-84
2022/01/14 18:32:26;;;;;;;22.60;16.13;;;6.40;99.90;;;;;;5060310;28;20449;-84
2022/01/14 18:34:54;;;;;;;19.77;13.60;;;6.60;99.90;;;;;;5059541;28;20508;-82
2022/01/14 18:37:20;;;;;;;21.90;14.73;;;6.70;99.90;;;;;;5041544;28;20449;-85
2022/01/14 18:39:47;;;;;;;27.10;16.70;;;6.90;99.90;;;;;;5040716;28;20456;-84
2022/01/14 18:42:14;;;;;;;27.83;16.57;;;7.10;99.90;;;;;;5043996;28;20448;-86
2022/01/14 18:44:40;;;;;;;25.17;16.50;;;6.80;99.90;;;;;;5051450;28;20479;-86
2022/01/14 18:47:07;;;;;;;26.10;16.17;;;6.60;99.90;;;;;;5041662;28;20451;-86
2022/01/14 18:49:34;;;;;;;25.60;16.27;;;6.50;99.90;;;;;;5045843;28;20480;-85
2022/01/14 18:52:21;;;;;;;24.30;14.07;;;6.60;99.90;;;;;;5055089;28;20487;-84
2022/01/14 18:55:02;;;;;;;24.27;15.40;;;6.60;99.90;;;;;;5034413;28;20486;-85
2022/01/14 18:57:29;;;;;;;23.90;17.60;;;6.40;99.90;;;;;;5099358;28;20451;-86
2022/01/14 18:59:55;;;;;;;27.73;18.07;;;6.40;99.90;;;;;;5101821;28;21134;-86
2022/01/14 19:02:22;;;;;;;25.57;16.50;;;6.50;99.90;;;;;;5097720;28;20497;-86
2022/01/14 19:04:49;;;;;;;22.27;15.03;;;6.50;99.90;;;;;;5111026;28;20524;-86
2022/01/14 19:07:20;;;;;;;27.70;17.93;;;6.30;99.90;;;;;;5108307;28;20448;-84
2022/01/14 19:09:48;;;;;;;27.10;18.50;;;6.30;99.90;;;;;;5099619;28;20466;-82
2022/01/14 19:12:15;;;;;;;26.23;16.97;;;6.80;99.90;;;;;;5095671;28;20580;-87
2022/01/14 19:14:42;;;;;;;29.20;18.23;;;6.70;99.90;;;;;;5093684;28;20494;-84
2022/01/14 19:17:09;;;;;;;27.50;18.10;;;6.80;99.90;;;;;;5098542;28;20443;-86
2022/01/14 19:19:37;;;;;;;28.77;18.37;;;6.80;99.90;;;;;;5099298;28;20502;-85
2022/01/14 19:22:04;;;;;;;28.63;20.13;;;6.90;99.90;;;;;;5093402;28;20472;-85
2022/01/14 19:24:31;;;;;;;29.30;19.60;;;6.80;99.90;;;;;;5087967;28;20475;-86
2022/01/14 19:26:59;;;;;;;28.27;18.87;;;6.80;99.90;;;;;;5098050;28;20808;-85
2022/01/14 19:29:27;;;;;;;24.70;16.40;;;6.80;99.90;;;;;;5094859;28;20461;-84
2022/01/14 19:31:54;;;;;;;31.17;21.00;;;6.80;99.90;;;;;;5090742;28;20469;-85
2022/01/14 19:34:20;;;;;;;28.57;18.57;;;6.80;99.90;;;;;;5080463;28;21086;-85
2022/01/14 19:36:47;;;;;;;22.97;14.93;;;6.50;99.90;;;;;;5097017;28;20451;-83
2022/01/14 19:39:14;;;;;;;29.23;17.47;;;6.40;99.90;;;;;;5093067;28;20458;-84
2022/01/14 19:41:41;;;;;;;25.67;17.33;;;6.60;99.90;;;;;;5083101;28;20487;-86
2022/01/14 19:44:08;;;;;;;27.43;17.37;;;6.70;99.90;;;;;;5075747;28;20487;-86
2022/01/14 19:46:40;;;;;;;31.53;18.60;;;6.50;99.90;;;;;;5109192;28;20467;-85
2022/01/14 19:49:07;;;;;;;31.83;19.87;;;6.40;99.90;;;;;;5110316;28;20427;-86
2022/01/14 19:51:33;;;;;;;32.40;18.10;;;6.50;99.90;;;;;;5113163;28;20527;-88
2022/01/14 19:54:00;;;;;;;30.57;19.30;;;6.60;99.90;;;;;;5115528;28;20466;-85
2022/01/14 19:56:29;;;;;;;30.90;19.93;;;6.50;99.90;;;;;;5116116;28;20609;-86